sensor_id;sensor_type;location;lat;lon;timestamp;P1;durP1;ratioP1;P2;durP2;ratioP2
17662;SDS011;8950;56.892;15.090;2023-04-25T00:00:25;6.35;;;5.85;;
17662;SDS011;8950;56.892;15.090;2023-04-25T00:02:51;7.00;;;6.45;;
17662;SDS011;8950;56.892;15.090;2023-04-25T00:05:17;6.70;;;6.10;;
17662;SDS011;8950;56.892;15.090;2023-04-25T00:07:46;6.40;;;5.90;;
17662;SDS011;8950;56.892;15.090;2023-04-25T00:10:13;7.07;;;6.40;;
17662;SDS011;8950;56.892;15.090;2023-04-25T00:12:39;6.45;;;5.85;;
17662;SDS011;8950;56.892;15.090;2023-04-25T00:15:07;6.30;;;5.80;;
17662;SDS011;8950;56.892;15.090;2023-04-25T00:17:34;6.60;;;6.10;;
17662;SDS011;8950;56.892;15.090;2023-04-25T00:20:03;6.32;;;5.82;;
17662;SDS011;8950;56.892;15.090;2023-04-25T00:22:32;5.82;;;5.32;;
17662;SDS011;8950;56.892;15.090;2023-04-25T00:25:01;5.88;;;5.43;;
17662;SDS011;8950;56.892;15.090;2023-04-25T00:27:28;6.18;;;5.57;;
17662;SDS011;8950;56.892;15.090;2023-04-25T00:29:54;6.35;;;5.85;;
17662;SDS011;8950;56.892;15.090;2023-04-25T00:32:21;5.32;;;4.90;;
17662;SDS011;8950;56.892;15.090;2023-04-25T00:34:47;5.80;;;5.30;;
17662;SDS011;8950;56.892;15.090;2023-04-25T00:37:14;5.57;;;5.07;;
17662;SDS011;8950;56.892;15.090;2023-04-25T00:39:40;6.00;;;5.50;;
17662;SDS011;8950;56.892;15.090;2023-04-25T00:42:09;5.22;;;4.82;;
17662;SDS011;8950;56.892;15.090;2023-04-25T00:44:35;5.32;;;4.90;;
17662;SDS011;8950;56.892;15.090;2023-04-25T00:47:03;4.82;;;4.43;;
17662;SDS011;8950;56.892;15.090;2023-04-25T00:49:29;5.05;;;4.68;;
17662;SDS011;8950;56.892;15.090;2023-04-25T00:51:56;5.00;;;4.60;;
17662;SDS011;8950;56.892;15.090;2023-04-25T00:54:23;5.00;;;4.60;;
17662;SDS011;8950;56.892;15.090;2023-04-25T00:56:49;5.10;;;4.70;;
17662;SDS011;8950;56.892;15.090;2023-04-25T00:59:17;5.10;;;4.70;;
17662;SDS011;8950;56.892;15.090;2023-04-25T01:01:44;5.20;;;4.80;;
17662;SDS011;8950;56.892;15.090;2023-04-25T01:04:11;4.90;;;4.50;;
17662;SDS011;8950;56.892;15.090;2023-04-25T01:06:38;5.00;;;4.60;;
17662;SDS011;8950;56.892;15.090;2023-04-25T01:09:04;5.22;;;4.82;;
17662;SDS011;8950;56.892;15.090;2023-04-25T01:11:31;4.70;;;4.32;;
17662;SDS011;8950;56.892;15.090;2023-04-25T01:13:58;5.43;;;4.85;;
17662;SDS011;8950;56.892;15.090;2023-04-25T01:16:25;4.90;;;4.50;;
17662;SDS011;8950;56.892;15.090;2023-04-25T01:18:52;5.30;;;4.88;;
17662;SDS011;8950;56.892;15.090;2023-04-25T01:21:20;5.10;;;4.70;;
17662;SDS011;8950;56.892;15.090;2023-04-25T01:23:46;5.50;;;5.10;;
17662;SDS011;8950;56.892;15.090;2023-04-25T01:26:13;5.30;;;4.90;;
17662;SDS011;8950;56.892;15.090;2023-04-25T01:28:39;5.30;;;4.90;;
17662;SDS011;8950;56.892;15.090;2023-04-25T01:31:07;5.35;;;4.95;;
17662;SDS011;8950;56.892;15.090;2023-04-25T01:33:33;5.20;;;4.80;;
17662;SDS011;8950;56.892;15.090;2023-04-25T01:36:00;5.40;;;5.00;;
17662;SDS011;8950;56.892;15.090;2023-04-25T01:38:27;5.00;;;4.60;;
17662;SDS011;8950;56.892;15.090;2023-04-25T01:40:54;4.70;;;4.30;;
17662;SDS011;8950;56.892;15.090;2023-04-25T01:43:20;5.32;;;4.82;;
17662;SDS011;8950;56.892;15.090;2023-04-25T01:45:47;4.82;;;4.53;;
17662;SDS011;8950;56.892;15.090;2023-04-25T01:48:14;5.65;;;5.15;;
17662;SDS011;8950;56.892;15.090;2023-04-25T01:50:41;5.22;;;4.65;;
17662;SDS011;8950;56.892;15.090;2023-04-25T01:53:07;5.22;;;4.82;;
17662;SDS011;8950;56.892;15.090;2023-04-25T01:55:36;4.57;;;4.28;;
17662;SDS011;8950;56.892;15.090;2023-04-25T01:58:03;5.55;;;5.15;;
17662;SDS011;8950;56.892;15.090;2023-04-25T02:00:34;6.00;;;5.47;;
17662;SDS011;8950;56.892;15.090;2023-04-25T02:03:00;5.50;;;5.10;;
17662;SDS011;8950;56.892;15.090;2023-04-25T02:05:26;6.15;;;5.72;;
17662;SDS011;8950;56.892;15.090;2023-04-25T02:07:53;6.57;;;6.00;;
17662;SDS011;8950;56.892;15.090;2023-04-25T02:10:20;6.07;;;5.57;;
17662;SDS011;8950;56.892;15.090;2023-04-25T02:12:48;6.47;;;5.97;;
17662;SDS011;8950;56.892;15.090;2023-04-25T02:15:15;6.00;;;5.50;;
17662;SDS011;8950;56.892;15.090;2023-04-25T02:17:41;6.32;;;5.82;;
17662;SDS011;8950;56.892;15.090;2023-04-25T02:20:08;6.82;;;6.25;;
17662;SDS011;8950;56.892;15.090;2023-04-25T02:22:35;6.80;;;6.30;;
17662;SDS011;8950;56.892;15.090;2023-04-25T02:25:02;8.02;;;7.32;;
17662;SDS011;8950;56.892;15.090;2023-04-25T02:27:29;7.00;;;6.40;;
17662;SDS011;8950;56.892;15.090;2023-04-25T02:29:57;7.55;;;6.95;;
17662;SDS011;8950;56.892;15.090;2023-04-25T02:32:24;6.78;;;6.28;;
17662;SDS011;8950;56.892;15.090;2023-04-25T02:34:50;8.25;;;7.55;;
17662;SDS011;8950;56.892;15.090;2023-04-25T02:37:17;8.60;;;7.90;;
17662;SDS011;8950;56.892;15.090;2023-04-25T02:39:43;7.78;;;7.18;;
17662;SDS011;8950;56.892;15.090;2023-04-25T02:42:10;8.32;;;7.53;;
17662;SDS011;8950;56.892;15.090;2023-04-25T02:44:36;7.80;;;7.20;;
17662;SDS011;8950;56.892;15.090;2023-04-25T02:47:04;8.43;;;7.72;;
17662;SDS011;8950;56.892;15.090;2023-04-25T02:49:30;8.57;;;7.90;;
17662;SDS011;8950;56.892;15.090;2023-04-25T02:51:56;8.40;;;7.60;;
17662;SDS011;8950;56.892;15.090;2023-04-25T02:54:23;8.25;;;7.43;;
17662;SDS011;8950;56.892;15.090;2023-04-25T02:56:49;8.02;;;7.35;;
17662;SDS011;8950;56.892;15.090;2023-04-25T02:59:15;8.50;;;7.80;;
17662;SDS011;8950;56.892;15.090;2023-04-25T03:01:42;8.77;;;8.02;;
17662;SDS011;8950;56.892;15.090;2023-04-25T03:04:10;9.15;;;8.23;;
17662;SDS011;8950;56.892;15.090;2023-04-25T03:06:36;8.18;;;7.47;;
17662;SDS011;8950;56.892;15.090;2023-04-25T03:09:03;8.90;;;8.10;;
17662;SDS011;8950;56.892;15.090;2023-04-25T03:11:29;9.25;;;8.45;;
17662;SDS011;8950;56.892;15.090;2023-04-25T03:13:56;9.27;;;8.50;;
17662;SDS011;8950;56.892;15.090;2023-04-25T03:16:22;10.52;;;9.60;;
17662;SDS011;8950;56.892;15.090;2023-04-25T03:18:49;10.40;;;9.50;;
17662;SDS011;8950;56.892;15.090;2023-04-25T03:21:17;9.75;;;8.85;;
17662;SDS011;8950;56.892;15.090;2023-04-25T03:23:43;10.13;;;9.18;;
17662;SDS011;8950;56.892;15.090;2023-04-25T03:26:10;9.82;;;8.93;;
17662;SDS011;8950;56.892;15.090;2023-04-25T03:28:36;10.07;;;9.07;;
17662;SDS011;8950;56.892;15.090;2023-04-25T03:31:02;10.07;;;9.18;;
17662;SDS011;8950;56.892;15.090;2023-04-25T03:33:29;11.63;;;10.63;;
17662;SDS011;8950;56.892;15.090;2023-04-25T03:35:55;10.50;;;9.60;;
17662;SDS011;8950;56.892;15.090;2023-04-25T03:38:23;11.75;;;10.65;;
17662;SDS011;8950;56.892;15.090;2023-04-25T03:40:50;10.80;;;9.80;;
17662;SDS011;8950;56.892;15.090;2023-04-25T03:43:16;10.48;;;9.57;;
17662;SDS011;8950;56.892;15.090;2023-04-25T03:45:43;11.70;;;10.68;;
17662;SDS011;8950;56.892;15.090;2023-04-25T03:48:09;12.20;;;11.10;;
17662;SDS011;8950;56.892;15.090;2023-04-25T03:50:36;10.80;;;9.93;;
17662;SDS011;8950;56.892;15.090;2023-04-25T03:53:02;12.68;;;11.57;;
17662;SDS011;8950;56.892;15.090;2023-04-25T03:55:30;12.52;;;11.35;;
17662;SDS011;8950;56.892;15.090;2023-04-25T03:57:57;10.90;;;10.00;;
17662;SDS011;8950;56.892;15.090;2023-04-25T04:00:24;12.18;;;10.98;;
17662;SDS011;8950;56.892;15.090;2023-04-25T04:02:50;11.38;;;10.48;;
17662;SDS011;8950;56.892;15.090;2023-04-25T04:05:17;11.85;;;10.75;;
17662;SDS011;8950;56.892;15.090;2023-04-25T04:07:43;11.95;;;10.85;;
17662;SDS011;8950;56.892;15.090;2023-04-25T04:10:10;11.20;;;10.20;;
17662;SDS011;8950;56.892;15.090;2023-04-25T04:12:38;12.70;;;11.50;;
17662;SDS011;8950;56.892;15.090;2023-04-25T04:15:05;12.20;;;11.20;;
17662;SDS011;8950;56.892;15.090;2023-04-25T04:17:32;11.43;;;10.45;;
17662;SDS011;8950;56.892;15.090;2023-04-25T04:19:58;12.20;;;11.00;;
17662;SDS011;8950;56.892;15.090;2023-04-25T04:22:25;12.93;;;11.73;;
17662;SDS011;8950;56.892;15.090;2023-04-25T04:24:51;11.98;;;10.88;;
17662;SDS011;8950;56.892;15.090;2023-04-25T04:27:19;12.38;;;11.27;;
17662;SDS011;8950;56.892;15.090;2023-04-25T04:29:47;11.52;;;10.52;;
17662;SDS011;8950;56.892;15.090;2023-04-25T04:32:15;12.10;;;10.90;;
17662;SDS011;8950;56.892;15.090;2023-04-25T04:34:42;11.07;;;10.00;;
17662;SDS011;8950;56.892;15.090;2023-04-25T04:37:08;11.23;;;10.23;;
17662;SDS011;8950;56.892;15.090;2023-04-25T04:39:38;11.32;;;10.32;;
17662;SDS011;8950;56.892;15.090;2023-04-25T04:42:04;11.05;;;10.13;;
17662;SDS011;8950;56.892;15.090;2023-04-25T04:44:31;10.85;;;9.85;;
17662;SDS011;8950;56.892;15.090;2023-04-25T04:47:00;9.73;;;8.93;;
17662;SDS011;8950;56.892;15.090;2023-04-25T04:49:28;9.98;;;9.07;;
17662;SDS011;8950;56.892;15.090;2023-04-25T04:51:55;9.65;;;8.75;;
17662;SDS011;8950;56.892;15.090;2023-04-25T04:54:21;9.43;;;8.63;;
17662;SDS011;8950;56.892;15.090;2023-04-25T04:56:48;10.15;;;9.25;;
17662;SDS011;8950;56.892;15.090;2023-04-25T04:59:15;9.25;;;8.35;;
17662;SDS011;8950;56.892;15.090;2023-04-25T05:01:41;8.50;;;7.72;;
17662;SDS011;8950;56.892;15.090;2023-04-25T05:04:09;9.05;;;8.30;;
17662;SDS011;8950;56.892;15.090;2023-04-25T05:06:35;7.45;;;6.85;;
17662;SDS011;8950;56.892;15.090;2023-04-25T05:09:02;8.30;;;7.57;;
17662;SDS011;8950;56.892;15.090;2023-04-25T05:11:28;8.75;;;7.72;;
17662;SDS011;8950;56.892;15.090;2023-04-25T05:13:55;7.63;;;6.93;;
17662;SDS011;8950;56.892;15.090;2023-04-25T05:16:21;6.22;;;5.60;;
17662;SDS011;8950;56.892;15.090;2023-04-25T05:18:48;5.85;;;5.35;;
17662;SDS011;8950;56.892;15.090;2023-04-25T05:21:16;5.20;;;4.72;;
17662;SDS011;8950;56.892;15.090;2023-04-25T05:23:43;5.28;;;4.88;;
17662;SDS011;8950;56.892;15.090;2023-04-25T05:26:09;4.60;;;4.20;;
17662;SDS011;8950;56.892;15.090;2023-04-25T05:28:38;4.63;;;4.22;;
17662;SDS011;8950;56.892;15.090;2023-04-25T05:31:05;4.07;;;3.78;;
17662;SDS011;8950;56.892;15.090;2023-04-25T05:33:32;3.60;;;3.40;;
17662;SDS011;8950;56.892;15.090;2023-04-25T05:35:58;3.92;;;3.63;;
17662;SDS011;8950;56.892;15.090;2023-04-25T05:38:27;3.70;;;3.40;;
17662;SDS011;8950;56.892;15.090;2023-04-25T05:40:53;3.53;;;3.28;;
17662;SDS011;8950;56.892;15.090;2023-04-25T05:43:19;3.50;;;3.20;;
17662;SDS011;8950;56.892;15.090;2023-04-25T05:45:46;3.20;;;2.83;;
17662;SDS011;8950;56.892;15.090;2023-04-25T05:48:12;3.45;;;3.08;;
17662;SDS011;8950;56.892;15.090;2023-04-25T05:50:39;3.40;;;3.20;;
17662;SDS011;8950;56.892;15.090;2023-04-25T05:53:05;3.28;;;2.97;;
17662;SDS011;8950;56.892;15.090;2023-04-25T05:55:33;3.05;;;2.75;;
17662;SDS011;8950;56.892;15.090;2023-04-25T05:58:00;3.40;;;3.10;;
17662;SDS011;8950;56.892;15.090;2023-04-25T06:00:26;3.20;;;2.90;;
17662;SDS011;8950;56.892;15.090;2023-04-25T06:02:53;3.22;;;2.95;;
17662;SDS011;8950;56.892;15.090;2023-04-25T06:05:19;3.95;;;2.72;;
17662;SDS011;8950;56.892;15.090;2023-04-25T06:07:46;2.95;;;2.75;;
17662;SDS011;8950;56.892;15.090;2023-04-25T06:10:13;2.85;;;2.65;;
17662;SDS011;8950;56.892;15.090;2023-04-25T06:12:41;2.95;;;2.75;;
17662;SDS011;8950;56.892;15.090;2023-04-25T06:15:08;3.25;;;2.95;;
17662;SDS011;8950;56.892;15.090;2023-04-25T06:17:35;3.35;;;2.78;;
17662;SDS011;8950;56.892;15.090;2023-04-25T06:20:01;2.83;;;2.63;;
17662;SDS011;8950;56.892;15.090;2023-04-25T06:22:28;4.38;;;2.90;;
17662;SDS011;8950;56.892;15.090;2023-04-25T06:24:55;3.28;;;2.97;;
17662;SDS011;8950;56.892;15.090;2023-04-25T06:27:22;3.30;;;3.00;;
17662;SDS011;8950;56.892;15.090;2023-04-25T06:29:50;3.63;;;3.25;;
17662;SDS011;8950;56.892;15.090;2023-04-25T06:32:17;3.20;;;2.92;;
17662;SDS011;8950;56.892;15.090;2023-04-25T06:34:44;3.30;;;3.00;;
17662;SDS011;8950;56.892;15.090;2023-04-25T06:37:11;3.25;;;2.90;;
17662;SDS011;8950;56.892;15.090;2023-04-25T06:39:37;3.80;;;2.80;;
17662;SDS011;8950;56.892;15.090;2023-04-25T06:42:03;3.05;;;2.75;;
17662;SDS011;8950;56.892;15.090;2023-04-25T06:44:30;2.97;;;2.67;;
17662;SDS011;8950;56.892;15.090;2023-04-25T06:50:00;2.97;;;2.55;;
17662;SDS011;8950;56.892;15.090;2023-04-25T06:52:26;2.63;;;2.42;;
17662;SDS011;8950;56.892;15.090;2023-04-25T06:54:53;4.28;;;2.58;;
17662;SDS011;8950;56.892;15.090;2023-04-25T06:57:19;2.90;;;2.30;;
17662;SDS011;8950;56.892;15.090;2023-04-25T06:59:45;2.50;;;2.30;;
17662;SDS011;8950;56.892;15.090;2023-04-25T07:02:12;2.53;;;2.33;;
17662;SDS011;8950;56.892;15.090;2023-04-25T07:04:38;2.30;;;2.08;;
17662;SDS011;8950;56.892;15.090;2023-04-25T07:07:06;2.50;;;2.20;;
17662;SDS011;8950;56.892;15.090;2023-04-25T07:09:33;2.92;;;2.00;;
17662;SDS011;8950;56.892;15.090;2023-04-25T07:11:59;2.22;;;2.03;;
17662;SDS011;8950;56.892;15.090;2023-04-25T07:14:26;3.17;;;2.13;;
17662;SDS011;8950;56.892;15.090;2023-04-25T07:16:52;2.15;;;1.95;;
17662;SDS011;8950;56.892;15.090;2023-04-25T07:19:20;2.55;;;1.70;;
17662;SDS011;8950;56.892;15.090;2023-04-25T07:21:48;1.67;;;1.50;;
17662;SDS011;8950;56.892;15.090;2023-04-25T07:24:16;1.85;;;1.73;;
17662;SDS011;8950;56.892;15.090;2023-04-25T07:26:43;1.52;;;1.42;;
17662;SDS011;8950;56.892;15.090;2023-04-25T07:29:09;1.50;;;1.40;;
17662;SDS011;8950;56.892;15.090;2023-04-25T07:31:36;1.50;;;1.40;;
17662;SDS011;8950;56.892;15.090;2023-04-25T07:34:02;2.05;;;1.50;;
17662;SDS011;8950;56.892;15.090;2023-04-25T07:36:29;1.50;;;1.40;;
17662;SDS011;8950;56.892;15.090;2023-04-25T07:38:56;1.20;;;1.10;;
17662;SDS011;8950;56.892;15.090;2023-04-25T07:41:24;1.50;;;1.40;;
17662;SDS011;8950;56.892;15.090;2023-04-25T07:43:50;1.40;;;1.30;;
17662;SDS011;8950;56.892;15.090;2023-04-25T07:46:17;1.50;;;1.33;;
17662;SDS011;8950;56.892;15.090;2023-04-25T07:48:43;1.00;;;1.00;;
17662;SDS011;8950;56.892;15.090;2023-04-25T07:51:09;1.30;;;1.20;;
17662;SDS011;8950;56.892;15.090;2023-04-25T07:53:36;1.00;;;1.00;;
17662;SDS011;8950;56.892;15.090;2023-04-25T07:56:03;1.08;;;1.08;;
17662;SDS011;8950;56.892;15.090;2023-04-25T07:58:31;1.30;;;1.20;;
17662;SDS011;8950;56.892;15.090;2023-04-25T08:00:57;1.27;;;1.20;;
17662;SDS011;8950;56.892;15.090;2023-04-25T08:03:24;1.17;;;1.17;;
17662;SDS011;8950;56.892;15.090;2023-04-25T08:05:50;1.40;;;1.30;;
17662;SDS011;8950;56.892;15.090;2023-04-25T08:08:17;1.40;;;1.30;;
17662;SDS011;8950;56.892;15.090;2023-04-25T08:10:43;1.58;;;1.40;;
17662;SDS011;8950;56.892;15.090;2023-04-25T08:13:09;1.60;;;1.50;;
17662;SDS011;8950;56.892;15.090;2023-04-25T08:15:37;1.20;;;1.20;;
17662;SDS011;8950;56.892;15.090;2023-04-25T08:18:04;1.20;;;1.20;;
17662;SDS011;8950;56.892;15.090;2023-04-25T08:20:30;1.45;;;1.35;;
17662;SDS011;8950;56.892;15.090;2023-04-25T08:22:57;1.50;;;1.40;;
17662;SDS011;8950;56.892;15.090;2023-04-25T08:25:23;1.52;;;1.42;;
17662;SDS011;8950;56.892;15.090;2023-04-25T08:27:50;1.50;;;1.40;;
17662;SDS011;8950;56.892;15.090;2023-04-25T08:30:17;1.30;;;1.20;;
17662;SDS011;8950;56.892;15.090;2023-04-25T08:32:45;1.10;;;1.10;;
17662;SDS011;8950;56.892;15.090;2023-04-25T08:35:11;1.10;;;1.10;;
17662;SDS011;8950;56.892;15.090;2023-04-25T08:37:38;1.20;;;1.20;;
17662;SDS011;8950;56.892;15.090;2023-04-25T08:40:05;1.17;;;1.17;;
17662;SDS011;8950;56.892;15.090;2023-04-25T08:42:33;1.10;;;1.10;;
17662;SDS011;8950;56.892;15.090;2023-04-25T08:44:59;1.33;;;1.23;;
17662;SDS011;8950;56.892;15.090;2023-04-25T08:47:26;1.02;;;1.02;;
17662;SDS011;8950;56.892;15.090;2023-04-25T08:49:55;1.38;;;1.25;;
17662;SDS011;8950;56.892;15.090;2023-04-25T08:52:23;1.80;;;1.20;;
17662;SDS011;8950;56.892;15.090;2023-04-25T08:54:50;1.30;;;1.20;;
17662;SDS011;8950;56.892;15.090;2023-04-25T08:57:17;1.60;;;1.50;;
17662;SDS011;8950;56.892;15.090;2023-04-25T08:59:44;1.20;;;1.10;;
17662;SDS011;8950;56.892;15.090;2023-04-25T09:02:12;1.40;;;1.30;;
17662;SDS011;8950;56.892;15.090;2023-04-25T09:04:39;1.52;;;1.30;;
17662;SDS011;8950;56.892;15.090;2023-04-25T09:07:07;1.10;;;1.10;;
17662;SDS011;8950;56.892;15.090;2023-04-25T09:09:33;1.33;;;1.10;;
17662;SDS011;8950;56.892;15.090;2023-04-25T09:12:00;1.30;;;1.10;;
17662;SDS011;8950;56.892;15.090;2023-04-25T09:14:28;0.80;;;0.80;;
17662;SDS011;8950;56.892;15.090;2023-04-25T09:16:58;1.00;;;1.00;;
17662;SDS011;8950;56.892;15.090;2023-04-25T09:19:25;1.00;;;1.00;;
17662;SDS011;8950;56.892;15.090;2023-04-25T09:21:53;1.17;;;1.08;;
17662;SDS011;8950;56.892;15.090;2023-04-25T09:24:22;1.05;;;1.00;;
17662;SDS011;8950;56.892;15.090;2023-04-25T09:26:55;0.85;;;0.85;;
17662;SDS011;8950;56.892;15.090;2023-04-25T09:29:24;1.10;;;1.10;;
17662;SDS011;8950;56.892;15.090;2023-04-25T09:31:57;1.27;;;1.00;;
17662;SDS011;8950;56.892;15.090;2023-04-25T09:34:38;0.93;;;0.90;;
17662;SDS011;8950;56.892;15.090;2023-04-25T09:37:05;1.15;;;1.05;;
17662;SDS011;8950;56.892;15.090;2023-04-25T09:39:33;0.90;;;0.90;;
17662;SDS011;8950;56.892;15.090;2023-04-25T09:42:00;1.38;;;0.90;;
17662;SDS011;8950;56.892;15.090;2023-04-25T09:44:26;0.75;;;0.75;;
17662;SDS011;8950;56.892;15.090;2023-04-25T09:46:53;0.85;;;0.85;;
17662;SDS011;8950;56.892;15.090;2023-04-25T09:49:19;1.00;;;0.90;;
17662;SDS011;8950;56.892;15.090;2023-04-25T09:51:53;1.17;;;1.08;;
17662;SDS011;8950;56.892;15.090;2023-04-25T09:54:20;0.80;;;0.80;;
17662;SDS011;8950;56.892;15.090;2023-04-25T09:56:48;0.93;;;0.93;;
17662;SDS011;8950;56.892;15.090;2023-04-25T09:59:14;0.88;;;0.88;;
17662;SDS011;8950;56.892;15.090;2023-04-25T10:01:41;0.90;;;0.90;;
17662;SDS011;8950;56.892;15.090;2023-04-25T10:04:10;0.85;;;0.85;;
17662;SDS011;8950;56.892;15.090;2023-04-25T10:06:36;0.93;;;0.93;;
17662;SDS011;8950;56.892;15.090;2023-04-25T10:09:03;1.00;;;1.00;;
17662;SDS011;8950;56.892;15.090;2023-04-25T10:11:32;0.85;;;0.85;;
17662;SDS011;8950;56.892;15.090;2023-04-25T10:14:00;0.90;;;0.88;;
17662;SDS011;8950;56.892;15.090;2023-04-25T10:16:27;0.80;;;0.80;;
17662;SDS011;8950;56.892;15.090;2023-04-25T10:18:57;0.85;;;0.85;;
17662;SDS011;8950;56.892;15.090;2023-04-25T10:21:23;0.90;;;0.90;;
17662;SDS011;8950;56.892;15.090;2023-04-25T10:23:51;0.90;;;0.90;;
17662;SDS011;8950;56.892;15.090;2023-04-25T10:26:19;0.80;;;0.80;;
17662;SDS011;8950;56.892;15.090;2023-04-25T10:28:55;0.90;;;0.90;;
17662;SDS011;8950;56.892;15.090;2023-04-25T10:31:23;0.90;;;0.90;;
17662;SDS011;8950;56.892;15.090;2023-04-25T10:33:49;0.80;;;0.80;;
17662;SDS011;8950;56.892;15.090;2023-04-25T10:36:17;0.95;;;0.95;;
17662;SDS011;8950;56.892;15.090;2023-04-25T10:38:44;1.00;;;1.00;;
17662;SDS011;8950;56.892;15.090;2023-04-25T10:41:11;1.20;;;1.10;;
17662;SDS011;8950;56.892;15.090;2023-04-25T10:43:38;1.10;;;1.10;;
17662;SDS011;8950;56.892;15.090;2023-04-25T10:46:15;1.00;;;1.00;;
17662;SDS011;8950;56.892;15.090;2023-04-25T10:48:47;1.90;;;1.30;;
17662;SDS011;8950;56.892;15.090;2023-04-25T10:51:18;1.88;;;1.10;;
17662;SDS011;8950;56.892;15.090;2023-04-25T10:53:45;1.08;;;1.08;;
17662;SDS011;8950;56.892;15.090;2023-04-25T10:56:11;1.30;;;1.20;;
17662;SDS011;8950;56.892;15.090;2023-04-25T10:58:43;1.10;;;1.10;;
17662;SDS011;8950;56.892;15.090;2023-04-25T11:01:09;1.10;;;1.10;;
17662;SDS011;8950;56.892;15.090;2023-04-25T11:03:38;1.17;;;1.17;;
17662;SDS011;8950;56.892;15.090;2023-04-25T11:06:06;1.10;;;1.10;;
17662;SDS011;8950;56.892;15.090;2023-04-25T11:08:39;1.00;;;1.00;;
17662;SDS011;8950;56.892;15.090;2023-04-25T11:11:10;1.25;;;1.20;;
17662;SDS011;8950;56.892;15.090;2023-04-25T11:13:36;1.10;;;1.10;;
17662;SDS011;8950;56.892;15.090;2023-04-25T11:16:03;1.23;;;1.15;;
17662;SDS011;8950;56.892;15.090;2023-04-25T11:18:29;1.45;;;1.25;;
17662;SDS011;8950;56.892;15.090;2023-04-25T11:20:57;1.20;;;1.10;;
17662;SDS011;8950;56.892;15.090;2023-04-25T11:23:25;1.20;;;1.20;;
17662;SDS011;8950;56.892;15.090;2023-04-25T11:25:52;1.40;;;1.20;;
17662;SDS011;8950;56.892;15.090;2023-04-25T11:28:20;1.20;;;1.10;;
17662;SDS011;8950;56.892;15.090;2023-04-25T11:30:47;1.10;;;1.10;;
17662;SDS011;8950;56.892;15.090;2023-04-25T11:33:14;1.20;;;1.20;;
17662;SDS011;8950;56.892;15.090;2023-04-25T11:35:40;1.30;;;1.20;;
17662;SDS011;8950;56.892;15.090;2023-04-25T11:38:07;1.30;;;1.25;;
17662;SDS011;8950;56.892;15.090;2023-04-25T11:40:35;1.23;;;1.13;;
17662;SDS011;8950;56.892;15.090;2023-04-25T11:43:01;1.00;;;1.00;;
17662;SDS011;8950;56.892;15.090;2023-04-25T11:45:28;1.30;;;1.23;;
17662;SDS011;8950;56.892;15.090;2023-04-25T11:47:55;1.70;;;1.42;;
17662;SDS011;8950;56.892;15.090;2023-04-25T11:50:22;1.10;;;1.10;;
17662;SDS011;8950;56.892;15.090;2023-04-25T11:52:48;1.17;;;1.10;;
17662;SDS011;8950;56.892;15.090;2023-04-25T11:55:16;1.40;;;1.30;;
17662;SDS011;8950;56.892;15.090;2023-04-25T11:57:46;1.20;;;1.20;;
17662;SDS011;8950;56.892;15.090;2023-04-25T12:00:14;1.10;;;1.10;;
17662;SDS011;8950;56.892;15.090;2023-04-25T12:02:42;1.30;;;1.20;;
17662;SDS011;8950;56.892;15.090;2023-04-25T12:05:09;1.40;;;1.30;;
17662;SDS011;8950;56.892;15.090;2023-04-25T12:07:36;1.05;;;1.05;;
17662;SDS011;8950;56.892;15.090;2023-04-25T12:10:06;1.42;;;1.23;;
17662;SDS011;8950;56.892;15.090;2023-04-25T12:12:34;1.20;;;1.20;;
17662;SDS011;8950;56.892;15.090;2023-04-25T12:15:13;1.40;;;1.30;;
17662;SDS011;8950;56.892;15.090;2023-04-25T12:17:44;1.48;;;1.38;;
17662;SDS011;8950;56.892;15.090;2023-04-25T12:20:12;1.45;;;1.33;;
17662;SDS011;8950;56.892;15.090;2023-04-25T12:22:40;2.95;;;1.40;;
17662;SDS011;8950;56.892;15.090;2023-04-25T12:25:09;2.90;;;1.40;;
17662;SDS011;8950;56.892;15.090;2023-04-25T12:27:36;1.40;;;1.30;;
17662;SDS011;8950;56.892;15.090;2023-04-25T12:30:03;1.40;;;1.30;;
17662;SDS011;8950;56.892;15.090;2023-04-25T12:32:31;1.60;;;1.50;;
17662;SDS011;8950;56.892;15.090;2023-04-25T12:34:57;2.13;;;1.40;;
17662;SDS011;8950;56.892;15.090;2023-04-25T12:37:24;1.40;;;1.30;;
17662;SDS011;8950;56.892;15.090;2023-04-25T12:39:51;1.50;;;1.40;;
17662;SDS011;8950;56.892;15.090;2023-04-25T12:42:17;1.70;;;1.60;;
17662;SDS011;8950;56.892;15.090;2023-04-25T12:44:43;1.35;;;1.25;;
17662;SDS011;8950;56.892;15.090;2023-04-25T12:47:12;1.50;;;1.40;;
17662;SDS011;8950;56.892;15.090;2023-04-25T12:49:40;1.63;;;1.40;;
17662;SDS011;8950;56.892;15.090;2023-04-25T12:52:06;2.17;;;1.33;;
17662;SDS011;8950;56.892;15.090;2023-04-25T12:54:33;1.90;;;1.80;;
17662;SDS011;8950;56.892;15.090;2023-04-25T12:57:00;1.48;;;1.38;;
17662;SDS011;8950;56.892;15.090;2023-04-25T12:59:27;2.67;;;1.50;;
17662;SDS011;8950;56.892;15.090;2023-04-25T13:01:54;1.90;;;1.35;;
17662;SDS011;8950;56.892;15.090;2023-04-25T13:04:20;1.40;;;1.30;;
17662;SDS011;8950;56.892;15.090;2023-04-25T13:06:48;1.70;;;1.38;;
17662;SDS011;8950;56.892;15.090;2023-04-25T13:09:14;1.48;;;1.38;;
17662;SDS011;8950;56.892;15.090;2023-04-25T13:11:41;1.38;;;1.27;;
17662;SDS011;8950;56.892;15.090;2023-04-25T13:14:08;1.65;;;1.20;;
17662;SDS011;8950;56.892;15.090;2023-04-25T13:16:34;1.23;;;1.13;;
17662;SDS011;8950;56.892;15.090;2023-04-25T13:19:01;1.10;;;1.10;;
17662;SDS011;8950;56.892;15.090;2023-04-25T13:21:29;1.15;;;1.10;;
17662;SDS011;8950;56.892;15.090;2023-04-25T13:23:57;1.48;;;1.38;;
17662;SDS011;8950;56.892;15.090;2023-04-25T13:26:23;1.52;;;1.20;;
17662;SDS011;8950;56.892;15.090;2023-04-25T13:28:50;1.17;;;1.17;;
17662;SDS011;8950;56.892;15.090;2023-04-25T13:31:16;1.38;;;1.27;;
17662;SDS011;8950;56.892;15.090;2023-04-25T13:33:43;2.80;;;1.40;;
17662;SDS011;8950;56.892;15.090;2023-04-25T13:36:09;1.48;;;1.38;;
17662;SDS011;8950;56.892;15.090;2023-04-25T13:38:36;2.00;;;1.20;;
17662;SDS011;8950;56.892;15.090;2023-04-25T13:41:05;1.40;;;1.30;;
17662;SDS011;8950;56.892;15.090;2023-04-25T13:43:32;1.05;;;1.00;;
17662;SDS011;8950;56.892;15.090;2023-04-25T13:45:59;1.58;;;1.20;;
17662;SDS011;8950;56.892;15.090;2023-04-25T13:48:25;0.88;;;0.88;;
17662;SDS011;8950;56.892;15.090;2023-04-25T13:50:51;0.98;;;0.98;;
17662;SDS011;8950;56.892;15.090;2023-04-25T13:53:18;1.83;;;1.00;;
17662;SDS011;8950;56.892;15.090;2023-04-25T13:55:44;1.05;;;0.98;;
17662;SDS011;8950;56.892;15.090;2023-04-25T13:58:12;3.00;;;1.13;;
17662;SDS011;8950;56.892;15.090;2023-04-25T14:00:38;1.23;;;1.13;;
17662;SDS011;8950;56.892;15.090;2023-04-25T14:03:08;1.40;;;1.30;;
17662;SDS011;8950;56.892;15.090;2023-04-25T14:05:34;1.52;;;1.40;;
17662;SDS011;8950;56.892;15.090;2023-04-25T14:08:04;1.50;;;1.40;;
17662;SDS011;8950;56.892;15.090;2023-04-25T14:13:35;1.50;;;1.40;;
17662;SDS011;8950;56.892;15.090;2023-04-25T14:16:01;1.65;;;1.55;;
17662;SDS011;8950;56.892;15.090;2023-04-25T14:18:28;1.67;;;1.58;;
17662;SDS011;8950;56.892;15.090;2023-04-25T14:20:54;2.03;;;1.92;;
17662;SDS011;8950;56.892;15.090;2023-04-25T14:23:21;1.90;;;1.80;;
17662;SDS011;8950;56.892;15.090;2023-04-25T14:25:47;1.70;;;1.60;;
17662;SDS011;8950;56.892;15.090;2023-04-25T14:28:13;2.13;;;1.88;;
17662;SDS011;8950;56.892;15.090;2023-04-25T14:30:41;1.83;;;1.73;;
17662;SDS011;8950;56.892;15.090;2023-04-25T14:33:08;2.00;;;1.90;;
17662;SDS011;8950;56.892;15.090;2023-04-25T14:35:34;1.90;;;1.80;;
17662;SDS011;8950;56.892;15.090;2023-04-25T14:38:01;1.60;;;1.50;;
17662;SDS011;8950;56.892;15.090;2023-04-25T14:40:27;2.05;;;1.88;;
17662;SDS011;8950;56.892;15.090;2023-04-25T14:42:54;1.80;;;1.70;;
17662;SDS011;8950;56.892;15.090;2023-04-25T14:45:20;1.80;;;1.70;;
17662;SDS011;8950;56.892;15.090;2023-04-25T14:47:48;1.80;;;1.70;;
17662;SDS011;8950;56.892;15.090;2023-04-25T14:50:14;1.60;;;1.50;;